Time;durP1;ratioP1;P1;durP2;ratioP2;P2;SDS_P1;SDS_P2;PMS_P1;PMS_P2;Temp;Humidity;BMP_temperature;BMP_pressure;BME280_temperature;BME280_humidity;BME280_pressure;Samples;Min_cycle;Max_cycle;Signal;HPM_P1;HPM_P2
2023/06/06 00:00:34;;;;;;;2.05;1.15;;;25.50;46.90;;;;;;5068121;28;20025;-67
2023/06/06 00:03:00;;;;;;;3.33;1.35;;;25.50;47.10;;;;;;5070420;28;20051;-68
2023/06/06 00:05:27;;;;;;;1.13;1.02;;;25.50;47.20;;;;;;5049561;28;20087;-67
2023/06/06 00:07:54;;;;;;;2.55;1.17;;;25.40;47.10;;;;;;5051213;28;20028;-67
2023/06/06 00:10:20;;;;;;;2.15;1.10;;;25.50;47.40;;;;;;5059556;28;20033;-67
2023/06/06 00:12:46;;;;;;;1.23;1.10;;;25.40;47.70;;;;;;5069964;28;20040;-68
2023/06/06 00:15:15;;;;;;;4.97;1.00;;;25.40;47.80;;;;;;5067008;28;20112;-67
2023/06/06 00:17:42;;;;;;;1.42;0.90;;;25.30;47.90;;;;;;5071263;28;20039;-67
2023/06/06 00:20:09;;;;;;;2.30;1.40;;;25.20;48.10;;;;;;5042783;28;20477;-67
2023/06/06 00:22:36;;;;;;;2.97;1.20;;;25.30;48.20;;;;;;5030919;28;20095;-68
2023/06/06 00:25:04;;;;;;;5.07;1.10;;;25.40;48.00;;;;;;5057850;28;20032;-67
2023/06/06 00:27:34;;;;;;;4.10;1.40;;;25.30;47.70;;;;;;5067159;28;20021;-68
2023/06/06 00:30:00;;;;;;;1.85;1.30;;;25.30;48.20;;;;;;5065276;28;20064;-68
2023/06/06 00:32:27;;;;;;;1.80;1.10;;;25.40;48.00;;;;;;5041009;28;20055;-67
2023/06/06 00:34:54;;;;;;;1.80;1.20;;;25.30;48.60;;;;;;5074420;28;20048;-67
2023/06/06 00:37:21;;;;;;;1.90;1.30;;;25.20;48.50;;;;;;5050516;28;20365;-68
2023/06/06 00:39:47;;;;;;;1.38;1.10;;;25.40;48.60;;;;;;5063138;28;20111;-67
2023/06/06 00:42:13;;;;;;;2.38;1.10;;;25.30;48.40;;;;;;5063503;28;20052;-67
2023/06/06 00:44:39;;;;;;;2.25;1.23;;;25.30;48.50;;;;;;5056785;28;20032;-67
2023/06/06 00:47:06;;;;;;;3.55;1.50;;;25.40;48.60;;;;;;5074095;28;20142;-68
2023/06/06 00:49:33;;;;;;;2.60;1.15;;;25.30;48.60;;;;;;5052105;28;20039;-67
2023/06/06 00:52:00;;;;;;;1.92;1.05;;;25.30;48.60;;;;;;5074006;28;20484;-66
2023/06/06 00:54:26;;;;;;;1.77;1.08;;;25.30;48.70;;;;;;5065090;28;20036;-67
2023/06/06 00:56:54;;;;;;;2.65;1.05;;;25.20;48.70;;;;;;5074256;28;20109;-68
2023/06/06 00:59:23;;;;;;;1.63;1.30;;;25.20;48.70;;;;;;5045166;28;20404;-67
2023/06/06 01:01:50;;;;;;;3.33;1.67;;;25.30;48.80;;;;;;5054497;28;20051;-67
2023/06/06 01:04:17;;;;;;;2.92;1.08;;;25.10;48.80;;;;;;5055978;28;20044;-67
2023/06/06 01:06:43;;;;;;;1.65;1.42;;;25.20;49.00;;;;;;5056268;28;20044;-67
2023/06/06 01:09:11;;;;;;;1.20;1.10;;;25.20;49.20;;;;;;5069224;28;20031;-67
2023/06/06 01:11:51;;;;;;;1.98;1.23;;;25.10;49.20;;;;;;5071387;28;20115;-67
2023/06/06 01:14:26;;;;;;;2.17;1.27;;;25.20;49.20;;;;;;5070071;28;20033;-67
2023/06/06 01:16:57;;;;;;;1.52;1.33;;;25.20;49.30;;;;;;5071363;28;20404;-67
2023/06/06 01:19:29;;;;;;;3.40;1.40;;;25.20;49.40;;;;;;5038067;28;20041;-67
2023/06/06 01:21:57;;;;;;;2.33;1.40;;;25.10;49.40;;;;;;5032810;28;20033;-67
2023/06/06 01:24:32;;;;;;;1.33;1.20;;;25.10;49.50;;;;;;5060412;28;20468;-68
2023/06/06 01:27:03;;;;;;;1.83;1.30;;;25.20;49.50;;;;;;5074200;28;20082;-67
2023/06/06 01:29:30;;;;;;;4.05;1.25;;;25.20;49.70;;;;;;5040456;28;20388;-67
2023/06/06 01:32:19;;;;;;;3.15;1.30;;;25.20;49.70;;;;;;5036221;28;20064;-68
2023/06/06 01:34:53;;;;;;;2.33;1.30;;;25.30;49.70;;;;;;5042278;28;20158;-67
2023/06/06 01:37:40;;;;;;;2.50;1.23;;;25.10;49.60;;;;;;5052795;28;20036;-67
2023/06/06 01:40:09;;;;;;;1.77;1.48;;;25.20;49.70;;;;;;5068411;28;20052;-67
2023/06/06 01:42:41;;;;;;;4.28;1.45;;;25.10;49.70;;;;;;5072202;28;20075;-68
2023/06/06 01:45:09;;;;;;;2.10;1.23;;;25.10;49.70;;;;;;5067312;28;20048;-68
2023/06/06 01:47:38;;;;;;;1.10;1.00;;;25.10;49.70;;;;;;5061440;28;20037;-67
2023/06/06 01:50:07;;;;;;;2.42;1.15;;;25.00;49.80;;;;;;5052442;28;20094;-68
2023/06/06 01:52:35;;;;;;;4.00;1.02;;;25.10;49.80;;;;;;5035253;28;20112;-67
2023/06/06 01:55:01;;;;;;;3.22;1.40;;;25.00;49.80;;;;;;5055902;28;20036;-67
2023/06/06 01:57:29;;;;;;;0.98;0.95;;;25.00;49.90;;;;;;5071828;28;20465;-68
2023/06/06 01:59:55;;;;;;;2.60;1.13;;;25.00;50.10;;;;;;5088018;28;20127;-67
2023/06/06 02:02:21;;;;;;;5.32;1.55;;;25.10;50.20;;;;;;5061192;28;20065;-67
2023/06/06 02:04:48;;;;;;;1.40;1.30;;;25.00;50.30;;;;;;5058452;28;20060;-68
2023/06/06 02:07:16;;;;;;;4.38;1.50;;;25.00;50.30;;;;;;5055502;28;20036;-67
2023/06/06 02:09:43;;;;;;;3.63;1.20;;;25.00;50.30;;;;;;5048085;28;20378;-67
2023/06/06 02:12:10;;;;;;;4.32;1.05;;;25.00;50.40;;;;;;5066487;28;20033;-67
2023/06/06 02:14:36;;;;;;;3.70;1.33;;;25.00;50.50;;;;;;5041826;28;20017;-68
2023/06/06 02:17:05;;;;;;;1.67;1.40;;;25.10;50.60;;;;;;5059237;28;20029;-67
2023/06/06 02:19:32;;;;;;;5.78;1.20;;;25.00;50.60;;;;;;5032965;28;20041;-67
2023/06/06 02:21:58;;;;;;;1.15;1.05;;;25.00;50.60;;;;;;5038948;28;20480;-67
2023/06/06 02:24:27;;;;;;;1.67;1.10;;;25.00;50.60;;;;;;5051739;28;20072;-67
2023/06/06 02:26:54;;;;;;;2.53;1.67;;;25.10;50.60;;;;;;5069783;28;20094;-67
2023/06/06 02:29:23;;;;;;;1.88;1.15;;;25.00;50.50;;;;;;5055125;28;20064;-68
2023/06/06 02:31:51;;;;;;;1.88;1.35;;;25.00;50.60;;;;;;5052187;28;20037;-68
2023/06/06 02:34:17;;;;;;;1.05;0.95;;;25.00;50.60;;;;;;5052448;28;20400;-68
2023/06/06 02:36:43;;;;;;;2.58;1.30;;;25.00;50.60;;;;;;5067450;28;20482;-67
2023/06/06 02:39:10;;;;;;;1.83;1.48;;;25.00;50.60;;;;;;5053380;28;20484;-68
2023/06/06 02:41:36;;;;;;;1.98;1.48;;;24.90;50.60;;;;;;5065374;28;20094;-68
2023/06/06 02:44:03;;;;;;;1.27;1.05;;;24.90;50.70;;;;;;5070028;28;20050;-69
2023/06/06 02:46:30;;;;;;;3.28;1.42;;;24.90;50.70;;;;;;5040620;28;20047;-68
2023/06/06 02:48:57;;;;;;;1.30;1.10;;;24.90;50.80;;;;;;5014462;28;20045;-67
2023/06/06 02:51:23;;;;;;;2.15;1.38;;;24.90;50.80;;;;;;5043549;28;20029;-67
2023/06/06 02:53:49;;;;;;;1.45;1.33;;;24.80;50.90;;;;;;5061962;28;20391;-67
2023/06/06 02:56:16;;;;;;;2.00;1.40;;;24.90;51.10;;;;;;5061166;28;20028;-67
2023/06/06 02:58:43;;;;;;;1.83;1.30;;;25.00;51.10;;;;;;5050497;28;20071;-68
2023/06/06 03:01:13;;;;;;;1.98;1.10;;;24.90;51.10;;;;;;5049215;28;20503;-68
2023/06/06 03:03:40;;;;;;;1.38;0.95;;;25.00;51.20;;;;;;5046202;28;20045;-68
2023/06/06 03:06:09;;;;;;;4.47;1.27;;;25.00;51.20;;;;;;5030313;28;20056;-67
2023/06/06 03:08:40;;;;;;;1.67;1.27;;;24.90;51.20;;;;;;5052528;28;20524;-67
2023/06/06 03:11:07;;;;;;;1.63;1.23;;;25.00;51.20;;;;;;5048461;28;20131;-68
2023/06/06 03:13:33;;;;;;;1.52;1.20;;;25.00;51.20;;;;;;5069178;28;20098;-67
2023/06/06 03:15:59;;;;;;;4.00;1.30;;;25.00;51.20;;;;;;5061541;28;20048;-68
2023/06/06 03:18:26;;;;;;;1.48;1.38;;;24.90;51.10;;;;;;5044798;28;20408;-67
2023/06/06 03:21:03;;;;;;;1.30;1.20;;;25.00;51.10;;;;;;5032460;28;20285;-68
2023/06/06 03:23:36;;;;;;;;;;;25.00;51.10;;;;;;5032767;28;20049;-68
2023/06/06 03:26:03;;;;;;;3.67;1.20;;;25.00;51.20;;;;;;5022797;28;20041;-68
2023/06/06 03:28:31;;;;;;;1.75;1.27;;;25.00;51.20;;;;;;5028204;28;20078;-67
2023/06/06 03:30:58;;;;;;;1.23;1.13;;;24.90;51.20;;;;;;5029381;28;20052;-67
2023/06/06 03:33:26;;;;;;;7.63;1.48;;;25.00;51.10;;;;;;5011954;28;20049;-68
2023/06/06 03:35:55;;;;;;;3.83;1.20;;;25.00;51.10;;;;;;5030432;28;20063;-67
2023/06/06 03:38:22;;;;;;;3.58;1.25;;;25.00;51.20;;;;;;5048676;28;20037;-68
2023/06/06 03:40:48;;;;;;;2.85;1.40;;;25.10;51.20;;;;;;5027594;28;20049;-68
2023/06/06 03:43:15;;;;;;;2.22;1.40;;;24.90;51.30;;;;;;5048485;28;20056;-67
2023/06/06 03:45:41;;;;;;;2.97;1.63;;;24.80;51.50;;;;;;5038524;28;20078;-67
2023/06/06 03:48:09;;;;;;;4.50;1.48;;;24.70;51.50;;;;;;5048559;28;20049;-69
2023/06/06 03:50:36;;;;;;;2.67;1.23;;;24.90;51.50;;;;;;5028776;28;20734;-67
2023/06/06 03:53:02;;;;;;;2.35;1.27;;;25.00;51.60;;;;;;5030823;28;20044;-67
2023/06/06 03:55:28;;;;;;;2.28;1.33;;;25.00;51.40;;;;;;5046487;28;20484;-68
2023/06/06 03:57:55;;;;;;;2.70;1.35;;;25.00;51.30;;;;;;5051570;28;20144;-68
2023/06/06 04:00:21;;;;;;;1.65;1.40;;;25.10;51.20;;;;;;5053596;28;20496;-67
2023/06/06 04:02:48;;;;;;;1.92;1.50;;;25.10;51.20;;;;;;5064344;28;20045;-68
2023/06/06 04:05:16;;;;;;;6.30;1.40;;;25.20;51.20;;;;;;5059762;28;20158;-68
2023/06/06 04:07:42;;;;;;;4.10;1.80;;;25.20;51.10;;;;;;5051729;28;20086;-68
2023/06/06 04:10:09;;;;;;;5.82;2.08;;;25.30;51.10;;;;;;5033316;28;20041;-67
2023/06/06 04:12:36;;;;;;;5.45;1.70;;;25.30;51.10;;;;;;5041266;28;20048;-67
2023/06/06 04:15:03;;;;;;;3.13;2.00;;;25.20;51.10;;;;;;5037586;28;20099;-67
2023/06/06 04:17:30;;;;;;;3.40;2.13;;;25.10;51.10;;;;;;5048325;28;20045;-68
2023/06/06 04:19:57;;;;;;;6.28;2.30;;;25.20;51.20;;;;;;5035439;28;20037;-67
2023/06/06 04:22:23;;;;;;;9.32;2.42;;;25.00;51.30;;;;;;5070313;28;20439;-68
2023/06/06 04:24:50;;;;;;;3.97;1.65;;;25.20;51.40;;;;;;5052119;28;20492;-67
2023/06/06 04:27:18;;;;;;;3.60;2.03;;;25.10;51.40;;;;;;5052750;28;20108;-68
2023/06/06 04:29:45;;;;;;;8.95;2.30;;;25.00;51.40;;;;;;5058709;28;20863;-68
2023/06/06 04:32:18;;;;;;;3.28;1.73;;;25.10;51.40;;;;;;5052173;28;20492;-67
2023/06/06 04:34:46;;;;;;;2.15;1.55;;;25.10;51.40;;;;;;5047676;28;20421;-68
2023/06/06 04:37:17;;;;;;;3.15;1.85;;;25.00;51.70;;;;;;5067453;28;20180;-67
2023/06/06 04:39:52;;;;;;;6.30;1.70;;;25.10;51.90;;;;;;5061670;28;20107;-67
2023/06/06 04:42:21;;;;;;;7.38;1.48;;;25.00;51.90;;;;;;5032175;28;20131;-67
2023/06/06 04:44:47;;;;;;;4.93;1.60;;;25.00;51.90;;;;;;5078625;28;20049;-68
2023/06/06 04:47:14;;;;;;;5.50;1.95;;;25.10;51.90;;;;;;5092312;28;20437;-68
2023/06/06 04:49:40;;;;;;;2.53;1.75;;;25.20;51.90;;;;;;5110027;28;20514;-68
2023/06/06 04:52:08;;;;;;;2.83;1.52;;;25.00;51.70;;;;;;5095775;28;20074;-67
2023/06/06 04:54:39;;;;;;;2.88;1.30;;;25.30;51.90;;;;;;5109272;28;20465;-68
2023/06/06 04:57:07;;;;;;;6.07;1.67;;;25.20;51.50;;;;;;5092950;28;20389;-67
2023/06/06 04:59:33;;;;;;;6.90;1.70;;;25.30;51.60;;;;;;5042736;28;20040;-67
2023/06/06 05:02:01;;;;;;;7.78;1.88;;;25.30;51.50;;;;;;5052338;28;20024;-68
2023/06/06 05:04:31;;;;;;;4.93;2.00;;;25.30;51.40;;;;;;5060891;28;20442;-68
2023/06/06 05:06:57;;;;;;;5.07;2.40;;;25.20;51.00;;;;;;5068857;28;20028;-68
2023/06/06 05:09:23;;;;;;;6.88;1.98;;;25.30;50.30;;;;;;5067439;28;20506;-68
2023/06/06 05:11:51;;;;;;;2.55;2.00;;;25.30;51.40;;;;;;5068996;28;20543;-68
2023/06/06 05:14:23;;;;;;;3.53;2.00;;;25.20;51.40;;;;;;5053395;28;20083;-69
2023/06/06 05:16:53;;;;;;;2.35;1.77;;;25.30;51.50;;;;;;5066890;28;20074;-72
2023/06/06 05:19:20;;;;;;;2.45;1.60;;;25.30;51.00;;;;;;5055065;28;20033;-73
2023/06/06 05:21:47;;;;;;;3.08;1.65;;;25.20;51.00;;;;;;5070454;28;20044;-73
2023/06/06 05:24:14;;;;;;;4.68;1.40;;;25.40;49.80;;;;;;5070616;28;20041;-73
2023/06/06 05:26:41;;;;;;;4.35;2.03;;;25.20;49.20;;;;;;5061560;28;20123;-72
2023/06/06 05:29:08;;;;;;;4.07;1.45;;;25.20;46.00;;;;;;5044074;28;20572;-73
2023/06/06 05:31:34;;;;;;;3.03;1.85;;;25.20;46.30;;;;;;5039442;28;20044;-72
2023/06/06 05:34:04;;;;;;;4.03;1.98;;;25.10;42.50;;;;;;5050539;28;20075;-71
2023/06/06 05:36:30;;;;;;;3.28;1.77;;;25.20;43.30;;;;;;5052769;28;20695;-71
2023/06/06 05:38:57;;;;;;;4.22;2.08;;;25.30;42.10;;;;;;5052506;28;20033;-71
2023/06/06 05:41:23;;;;;;;6.22;1.58;;;25.30;42.10;;;;;;5036238;28;20025;-72
2023/06/06 05:43:50;;;;;;;2.00;1.60;;;25.30;40.60;;;;;;5038063;28;20125;-72
2023/06/06 05:46:17;;;;;;;3.63;2.00;;;25.30;39.60;;;;;;5034092;28;20175;-71
2023/06/06 05:48:43;;;;;;;4.50;2.03;;;25.30;38.40;;;;;;5044687;28;20450;-75
2023/06/06 05:51:10;;;;;;;3.25;1.70;;;25.30;39.00;;;;;;5036449;28;20040;-74
2023/06/06 05:53:45;;;;;;;7.43;2.30;;;25.30;37.20;;;;;;5033784;28;20044;-75
2023/06/06 05:56:18;;;;;;;4.32;2.15;;;25.30;35.30;;;;;;5046083;28;20041;-74
2023/06/06 05:58:47;;;;;;;4.18;2.00;;;25.20;34.50;;;;;;5036275;28;20022;-74
2023/06/06 06:01:14;;;;;;;4.63;2.03;;;25.10;33.20;;;;;;5046001;28;20041;-74
2023/06/06 06:03:42;;;;;;;3.70;2.10;;;25.10;33.20;;;;;;5051950;28;20115;-76
2023/06/06 06:06:08;;;;;;;4.40;2.20;;;25.00;30.90;;;;;;5059559;28;20048;-76
2023/06/06 06:08:37;;;;;;;2.75;1.95;;;25.00;31.60;;;;;;5059655;28;20032;-73
2023/06/06 06:11:06;;;;;;;3.53;2.05;;;25.00;30.90;;;;;;5033609;28;20485;-74
2023/06/06 06:13:32;;;;;;;2.92;2.15;;;24.90;30.10;;;;;;5035087;28;20040;-74
2023/06/06 06:15:58;;;;;;;4.95;2.00;;;24.80;30.80;;;;;;5048969;28;20102;-74
2023/06/06 06:18:24;;;;;;;3.80;2.05;;;25.00;31.90;;;;;;5040389;28;20660;-74
2023/06/06 06:20:50;;;;;;;3.85;2.40;;;25.00;30.80;;;;;;5038852;28;20068;-74
2023/06/06 06:23:16;;;;;;;3.28;2.10;;;24.90;31.00;;;;;;5056085;28;20021;-75
2023/06/06 06:25:44;;;;;;;7.70;2.53;;;24.80;30.20;;;;;;5054062;28;20043;-74
2023/06/06 06:28:21;;;;;;;4.10;1.75;;;24.80;30.20;;;;;;5042545;28;20060;-75
2023/06/06 06:30:48;;;;;;;3.38;2.05;;;24.90;29.90;;;;;;5050338;28;20107;-75
2023/06/06 06:33:15;;;;;;;3.00;1.95;;;24.90;31.30;;;;;;5041074;28;20041;-74
2023/06/06 06:35:42;;;;;;;3.08;2.33;;;24.90;30.60;;;;;;5046269;28;20021;-75
2023/06/06 06:38:09;;;;;;;3.70;1.95;;;25.00;32.00;;;;;;5051077;28;20033;-73
2023/06/06 06:40:35;;;;;;;11.70;2.20;;;24.90;31.20;;;;;;5053978;28;20076;-75
2023/06/06 06:43:01;;;;;;;5.40;2.15;;;25.00;31.50;;;;;;5051059;28;20049;-77
2023/06/06 06:45:40;;;;;;;3.05;2.25;;;24.90;31.00;;;;;;5042539;28;20034;-76
2023/06/06 06:48:06;;;;;;;8.30;1.90;;;24.90;31.40;;;;;;5032541;28;20166;-76
2023/06/06 06:50:32;;;;;;;2.60;2.10;;;24.90;31.40;;;;;;5032978;28;20055;-76
2023/06/06 06:52:58;;;;;;;4.32;2.20;;;24.80;31.00;;;;;;5032617;28;20037;-76
2023/06/06 06:55:25;;;;;;;2.25;1.13;;;25.00;30.30;;;;;;5037636;28;20034;-76
2023/06/06 06:57:53;;;;;;;6.00;2.05;;;24.90;30.80;;;;;;5046788;28;20021;-76
2023/06/06 07:00:23;;;;;;;2.63;2.28;;;24.90;31.50;;;;;;5051085;28;20401;-75
2023/06/06 07:02:50;;;;;;;3.00;1.70;;;24.90;31.40;;;;;;5051206;28;20376;-76
2023/06/06 07:05:16;;;;;;;5.35;2.20;;;24.80;31.80;;;;;;5049491;28;20407;-75
2023/06/06 07:07:46;;;;;;;3.50;2.30;;;24.90;31.80;;;;;;5045633;28;20074;-72
2023/06/06 07:10:17;;;;;;;2.65;1.98;;;24.90;32.30;;;;;;5059817;28;20488;-72
2023/06/06 07:12:50;;;;;;;5.28;2.05;;;24.80;32.70;;;;;;5052328;28;20040;-72
2023/06/06 07:15:19;;;;;;;3.42;1.80;;;24.90;32.90;;;;;;5054144;28;20039;-71
2023/06/06 07:17:50;;;;;;;6.88;2.50;;;25.00;33.40;;;;;;5052458;28;20353;-71
2023/06/06 07:20:23;;;;;;;4.70;1.90;;;24.90;34.10;;;;;;5069987;28;20532;-67
2023/06/06 07:22:53;;;;;;;4.03;2.33;;;25.00;34.40;;;;;;5049465;28;20440;-68
2023/06/06 07:25:19;;;;;;;3.38;1.75;;;25.00;34.30;;;;;;5048756;28;20112;-68
2023/06/06 07:27:47;;;;;;;1.98;1.77;;;25.00;35.20;;;;;;5050533;28;20396;-67
2023/06/06 07:30:14;;;;;;;2.13;1.52;;;25.10;35.90;;;;;;5050525;28;20091;-68
2023/06/06 07:32:41;;;;;;;2.55;1.42;;;25.10;36.20;;;;;;5043578;28;20029;-68
2023/06/06 07:35:12;;;;;;;4.82;1.75;;;25.00;36.10;;;;;;5030486;28;20107;-68
2023/06/06 07:37:38;;;;;;;6.38;1.85;;;25.00;36.40;;;;;;5031808;28;20381;-67
2023/06/06 07:40:07;;;;;;;5.38;1.92;;;25.10;36.00;;;;;;5031504;28;20428;-68
2023/06/06 07:42:34;;;;;;;5.22;2.00;;;25.00;36.70;;;;;;5031243;28;20033;-68
2023/06/06 07:45:01;;;;;;;2.90;1.70;;;25.10;36.60;;;;;;5042419;28;20024;-68
2023/06/06 07:47:27;;;;;;;3.58;1.75;;;25.00;36.80;;;;;;5031419;28;20033;-68
2023/06/06 07:49:54;;;;;;;5.88;1.58;;;25.20;36.90;;;;;;5046201;28;20069;-68
2023/06/06 07:52:20;;;;;;;2.83;1.98;;;25.00;37.10;;;;;;5047612;28;20132;-68
2023/06/06 07:54:46;;;;;;;3.80;1.52;;;25.20;35.50;;;;;;5032939;28;20483;-68
2023/06/06 07:57:16;;;;;;;1.40;1.30;;;25.10;37.10;;;;;;5030193;28;20104;-68
2023/06/06 07:59:45;;;;;;;3.08;1.98;;;25.20;37.40;;;;;;5048125;28;20128;-68
2023/06/06 08:02:14;;;;;;;2.63;1.58;;;25.10;37.30;;;;;;5048818;28;20548;-68
2023/06/06 08:04:42;;;;;;;4.50;1.73;;;25.00;37.40;;;;;;5032389;28;20422;-68
2023/06/06 08:07:09;;;;;;;2.53;1.77;;;25.00;37.50;;;;;;5054655;28;20108;-68
2023/06/06 08:09:36;;;;;;;3.75;1.63;;;25.10;37.60;;;;;;5032217;28;20447;-68
2023/06/06 08:12:06;;;;;;;2.70;1.67;;;25.20;37.70;;;;;;5048791;28;20052;-67
2023/06/06 08:14:35;;;;;;;8.10;1.60;;;25.20;37.80;;;;;;5048635;28;20045;-68
2023/06/06 08:17:03;;;;;;;5.10;1.40;;;25.30;37.70;;;;;;5048565;28;20037;-68
2023/06/06 08:19:29;;;;;;;4.10;1.58;;;25.30;38.00;;;;;;5048278;28;20444;-67
2023/06/06 08:21:55;;;;;;;1.85;1.33;;;25.30;38.00;;;;;;5056812;28;20044;-68
2023/06/06 08:24:21;;;;;;;2.97;1.65;;;25.20;38.10;;;;;;5067732;28;20093;-69
2023/06/06 08:26:47;;;;;;;1.50;1.40;;;25.30;37.40;;;;;;5051208;28;20093;-68
2023/06/06 08:29:14;;;;;;;5.97;1.92;;;25.30;37.80;;;;;;5068674;28;20036;-68
2023/06/06 08:31:42;;;;;;;2.22;1.30;;;25.40;37.80;;;;;;5051244;28;20029;-68
2023/06/06 08:34:08;;;;;;;2.95;1.90;;;25.20;38.20;;;;;;5038283;28;20516;-68
2023/06/06 08:36:34;;;;;;;4.80;1.95;;;25.20;38.60;;;;;;5031222;28;20059;-68
2023/06/06 08:39:01;;;;;;;1.80;1.42;;;25.20;38.50;;;;;;5031687;28;20370;-67
2023/06/06 08:41:29;;;;;;;1.83;1.38;;;25.30;37.10;;;;;;5045134;28;20656;-68
2023/06/06 08:43:59;;;;;;;1.27;1.17;;;25.30;38.80;;;;;;5050780;28;20377;-68
2023/06/06 08:46:25;;;;;;;2.75;1.48;;;25.30;38.90;;;;;;5050904;28;20037;-68
2023/06/06 08:48:53;;;;;;;2.25;1.50;;;25.30;39.20;;;;;;5047903;28;20037;-68
2023/06/06 08:51:24;;;;;;;5.50;1.98;;;25.10;39.30;;;;;;5050480;28;20426;-68
2023/06/06 08:53:51;;;;;;;2.65;1.42;;;25.10;39.20;;;;;;5046305;28;20040;-69
2023/06/06 08:56:22;;;;;;;2.55;1.25;;;25.20;38.80;;;;;;5031009;28;20061;-68
2023/06/06 08:58:50;;;;;;;4.20;1.55;;;25.10;38.80;;;;;;5030617;28;20032;-70
2023/06/06 09:01:18;;;;;;;2.58;1.52;;;25.10;39.40;;;;;;5034759;28;20771;-68
2023/06/06 09:03:45;;;;;;;2.13;1.30;;;25.20;39.50;;;;;;5041064;28;20593;-68
2023/06/06 09:06:12;;;;;;;1.65;1.38;;;25.10;39.30;;;;;;5034471;28;20037;-68
2023/06/06 09:08:39;;;;;;;1.42;1.23;;;25.10;39.70;;;;;;5034128;28;20030;-68
2023/06/06 09:11:05;;;;;;;5.00;1.08;;;25.00;39.70;;;;;;5035215;28;20033;-67
2023/06/06 09:13:31;;;;;;;2.30;1.63;;;25.10;39.80;;;;;;5031423;28;20053;-67
2023/06/06 09:15:57;;;;;;;1.50;1.25;;;25.10;39.40;;;;;;5015149;28;20045;-68
2023/06/06 09:18:29;;;;;;;1.75;0.98;;;25.20;39.80;;;;;;5015434;28;20037;-68
2023/06/06 09:20:56;;;;;;;2.28;1.48;;;25.10;40.00;;;;;;5031195;28;20045;-68
2023/06/06 09:23:22;;;;;;;4.18;1.58;;;25.20;40.00;;;;;;5015923;28;20041;-68
2023/06/06 09:25:48;;;;;;;3.22;1.58;;;25.10;37.60;;;;;;5031286;28;20104;-68
2023/06/06 09:28:15;;;;;;;4.38;1.48;;;25.10;39.70;;;;;;5031626;28;20091;-68
2023/06/06 09:30:41;;;;;;;5.95;1.80;;;25.10;39.60;;;;;;5034316;28;20079;-68
2023/06/06 09:33:07;;;;;;;2.28;1.55;;;25.10;39.60;;;;;;5048146;28;20110;-68
2023/06/06 09:35:37;;;;;;;2.05;1.33;;;25.10;39.90;;;;;;5044625;28;20083;-68
2023/06/06 09:38:15;;;;;;;4.65;1.45;;;25.10;39.90;;;;;;5055150;28;20041;-67
2023/06/06 09:40:47;;;;;;;1.60;1.50;;;25.10;40.00;;;;;;5028338;28;20554;-68
2023/06/06 09:43:13;;;;;;;3.72;1.52;;;25.20;40.00;;;;;;5053499;28;20110;-68
2023/06/06 09:45:50;;;;;;;3.70;1.65;;;25.20;40.60;;;;;;5037837;28;20048;-68
2023/06/06 09:48:24;;;;;;;3.78;1.38;;;25.30;40.70;;;;;;5060805;28;20103;-68
2023/06/06 09:50:50;;;;;;;2.63;1.30;;;25.30;39.90;;;;;;5041330;28;20583;-68
2023/06/06 09:53:16;;;;;;;2.50;1.30;;;25.30;40.80;;;;;;5066359;28;20123;-70
2023/06/06 09:55:43;;;;;;;2.40;1.50;;;25.30;41.00;;;;;;5062874;28;20527;-68
2023/06/06 09:58:17;;;;;;;2.72;1.63;;;25.30;40.00;;;;;;5042388;28;20033;-68
2023/06/06 10:00:47;;;;;;;5.88;1.42;;;25.30;40.90;;;;;;5046310;28;20107;-68
2023/06/06 10:03:18;;;;;;;1.73;1.30;;;25.30;41.00;;;;;;5036637;28;20178;-68
2023/06/06 10:05:52;;;;;;;2.47;1.50;;;25.30;40.70;;;;;;5063674;28;20044;-68
2023/06/06 10:08:19;;;;;;;3.80;1.90;;;25.40;41.10;;;;;;5043722;28;20036;-68
2023/06/06 10:10:49;;;;;;;2.55;1.60;;;25.50;41.10;;;;;;5050416;28;20175;-68
2023/06/06 10:13:20;;;;;;;3.92;2.13;;;25.60;41.00;;;;;;5054231;28;20882;-69
2023/06/06 10:15:48;;;;;;;1.83;1.10;;;25.50;41.10;;;;;;5023739;28;20113;-67
2023/06/06 10:18:16;;;;;;;5.45;1.70;;;25.50;40.90;;;;;;5032829;28;20033;-68
2023/06/06 10:20:44;;;;;;;1.40;1.30;;;25.60;41.00;;;;;;5032496;28;20057;-68
2023/06/06 10:23:11;;;;;;;3.63;1.38;;;25.50;41.30;;;;;;5032634;28;20040;-68
2023/06/06 10:25:37;;;;;;;2.13;1.55;;;25.60;41.30;;;;;;5032955;28;20109;-68
2023/06/06 10:28:28;;;;;;;2.85;1.45;;;25.60;41.40;;;;;;5032534;28;20041;-68
2023/06/06 10:31:04;;;;;;;2.42;1.45;;;25.60;41.30;;;;;;5032559;28;20098;-68
2023/06/06 10:33:42;;;;;;;4.00;1.60;;;25.50;41.10;;;;;;5032481;28;20067;-68
2023/06/06 10:36:15;;;;;;;1.63;1.27;;;25.70;41.50;;;;;;5032672;28;20116;-68
2023/06/06 10:39:01;;;;;;;4.22;1.75;;;25.60;41.50;;;;;;5032687;28;20057;-68
2023/06/06 10:41:41;;;;;;;1.83;0.82;;;25.60;41.20;;;;;;5039367;28;20029;-68
2023/06/06 10:44:08;;;;;;;2.70;1.45;;;25.70;41.50;;;;;;5043612;28;20095;-68
2023/06/06 10:46:34;;;;;;;4.57;1.92;;;25.70;41.50;;;;;;5048458;28;20045;-68
2023/06/06 10:49:02;;;;;;;1.85;1.65;;;25.70;41.40;;;;;;5043638;28;20357;-68
2023/06/06 10:51:36;;;;;;;2.50;1.48;;;25.70;41.10;;;;;;5064042;28;20033;-68
2023/06/06 10:54:15;;;;;;;2.67;1.52;;;25.80;41.50;;;;;;5050904;28;20028;-68
2023/06/06 10:56:54;;;;;;;7.43;1.42;;;25.80;41.60;;;;;;5060117;28;20059;-68
2023/06/06 10:59:34;;;;;;;4.10;2.13;;;25.80;41.60;;;;;;5035835;28;20043;-68
2023/06/06 11:02:10;;;;;;;1.75;1.60;;;25.80;41.00;;;;;;5054581;28;20123;-68
2023/06/06 11:04:39;;;;;;;3.88;1.60;;;25.80;41.40;;;;;;5036651;28;20539;-68
2023/06/06 11:07:15;;;;;;;6.13;1.55;;;25.80;41.40;;;;;;5038050;28;20062;-68
2023/06/06 11:09:42;;;;;;;3.47;1.83;;;25.80;41.60;;;;;;5045012;28;20021;-68
2023/06/06 11:12:11;;;;;;;2.58;1.73;;;25.80;40.50;;;;;;5059989;28;20036;-68
2023/06/06 11:15:03;;;;;;;2.15;1.35;;;25.80;41.40;;;;;;5045175;28;20108;-68
2023/06/06 11:17:45;;;;;;;1.65;1.55;;;25.80;40.80;;;;;;5023193;28;20111;-69
2023/06/06 11:20:22;;;;;;;1.40;0.90;;;25.80;41.40;;;;;;5013010;28;20127;-69
2023/06/06 11:23:05;;;;;;;2.15;1.35;;;25.80;41.70;;;;;;5012751;28;20050;-68
2023/06/06 11:25:32;;;;;;;;;;;25.80;40.40;;;;;;5007451;28;20167;-68
2023/06/06 11:27:59;;;;;;;1.05;1.00;;;25.90;40.90;;;;;;5026807;28;19909;-68
2023/06/06 11:30:33;;;;;;;2.60;1.58;;;25.90;41.70;;;;;;4993058;28;20037;-68
2023/06/06 11:33:00;;;;;;;2.92;1.42;;;25.70;41.80;;;;;;5017053;28;20171;-68
2023/06/06 11:35:32;;;;;;;3.58;1.63;;;25.70;41.80;;;;;;5022776;28;20067;-68
2023/06/06 11:37:58;;;;;;;4.00;1.80;;;25.70;41.80;;;;;;5028874;28;20041;-68
2023/06/06 11:40:25;;;;;;;1.42;1.30;;;25.80;42.30;;;;;;5010157;28;20152;-68
2023/06/06 11:42:51;;;;;;;2.03;1.17;;;25.70;42.50;;;;;;5028782;28;20041;-68
2023/06/06 11:45:18;;;;;;;3.65;1.70;;;25.80;42.00;;;;;;5011051;28;20037;-68
2023/06/06 11:47:45;;;;;;;3.08;1.50;;;25.80;42.40;;;;;;5008613;28;20037;-68
2023/06/06 11:50:12;;;;;;;2.47;1.50;;;25.80;41.60;;;;;;5018923;28;20045;-68
2023/06/06 11:52:48;;;;;;;2.58;1.25;;;25.90;42.70;;;;;;4992381;28;20120;-68
2023/06/06 11:55:15;;;;;;;3.70;1.65;;;25.80;42.50;;;;;;5033188;28;20037;-68
2023/06/06 11:57:42;;;;;;;1.63;1.30;;;25.90;41.80;;;;;;5048955;28;20771;-68
2023/06/06 12:00:17;;;;;;;2.25;1.30;;;25.90;39.00;;;;;;5038313;28;20042;-69
2023/06/06 12:02:51;;;;;;;1.80;1.30;;;25.80;41.70;;;;;;5060769;28;20087;-69
2023/06/06 12:05:24;;;;;;;2.00;1.10;;;25.90;42.70;;;;;;5049165;28;20041;-68
2023/06/06 12:07:54;;;;;;;4.90;1.33;;;25.90;43.10;;;;;;5043466;28;20844;-68
2023/06/06 12:10:22;;;;;;;1.95;1.50;;;25.70;42.20;;;;;;5039191;28;20094;-68
2023/06/06 12:12:49;;;;;;;4.47;1.20;;;25.80;42.30;;;;;;5050963;28;20461;-69
2023/06/06 12:15:15;;;;;;;1.60;1.38;;;25.70;43.30;;;;;;5049966;28;20080;-68
2023/06/06 12:17:41;;;;;;;3.40;1.67;;;25.70;43.40;;;;;;5043315;28;20052;-68
2023/06/06 12:20:07;;;;;;;5.53;1.70;;;25.70;42.40;;;;;;5030251;28;20080;-68
2023/06/06 12:22:35;;;;;;;2.30;1.70;;;25.70;42.90;;;;;;5031535;28;20446;-68
2023/06/06 12:25:02;;;;;;;2.00;1.30;;;25.80;43.80;;;;;;5041543;28;20040;-68
2023/06/06 12:27:36;;;;;;;1.40;1.30;;;25.90;43.70;;;;;;5027867;28;20069;-68
2023/06/06 12:30:07;;;;;;;3.10;1.73;;;25.70;43.40;;;;;;5043083;28;20101;-68
2023/06/06 12:32:36;;;;;;;4.55;1.35;;;25.80;43.10;;;;;;5035091;28;20084;-68
2023/06/06 12:35:02;;;;;;;3.70;1.15;;;25.80;44.10;;;;;;5041774;28;20041;-68
2023/06/06 12:37:41;;;;;;;3.25;1.38;;;25.80;44.20;;;;;;5048291;28;20082;-68
2023/06/06 12:40:18;;;;;;;4.22;1.38;;;25.90;44.30;;;;;;5046996;28;20029;-68
2023/06/06 12:42:52;;;;;;;6.13;1.40;;;25.80;44.20;;;;;;5058085;28;20033;-69
2023/06/06 12:45:19;;;;;;;3.70;1.48;;;25.80;44.40;;;;;;5064472;28;20037;-68
2023/06/06 12:47:47;;;;;;;1.02;1.00;;;25.80;44.40;;;;;;5051457;28;20048;-68
2023/06/06 12:50:13;;;;;;;1.23;1.10;;;25.80;44.50;;;;;;5043787;28;20037;-68
2023/06/06 12:52:40;;;;;;;1.45;1.20;;;25.80;44.60;;;;;;5049063;28;20149;-68
2023/06/06 12:55:06;;;;;;;1.23;1.02;;;25.80;44.70;;;;;;5044731;28;20045;-68